sensor_id;sensor_type;location;lat;lon;timestamp;temperature;humidity
74946;HTU21D;63509;45.250;38.102;2023-04-08T00:00:11;10.28;77.63
74946;HTU21D;63509;45.250;38.102;2023-04-08T00:02:39;10.28;77.68
74946;HTU21D;63509;45.250;38.102;2023-04-08T00:05:06;10.26;77.70
74946;HTU21D;63509;45.250;38.102;2023-04-08T00:07:33;10.27;77.78
74946;HTU21D;63509;45.250;38.102;2023-04-08T00:09:59;10.28;77.75
74946;HTU21D;63509;45.250;38.102;2023-04-08T00:12:25;10.27;77.79
74946;HTU21D;63509;45.250;38.102;2023-04-08T00:14:51;10.28;77.79
74946;HTU21D;63509;45.250;38.102;2023-04-08T00:17:17;10.30;77.82
74946;HTU21D;63509;45.250;38.102;2023-04-08T00:19:43;10.33;77.82
74946;HTU21D;63509;45.250;38.102;2023-04-08T00:22:10;10.35;77.81
74946;HTU21D;63509;45.250;38.102;2023-04-08T00:24:36;10.37;77.84
74946;HTU21D;63509;45.250;38.102;2023-04-08T00:27:02;10.37;77.82
74946;HTU21D;63509;45.250;38.102;2023-04-08T00:29:28;10.38;77.79
74946;HTU21D;63509;45.250;38.102;2023-04-08T00:31:55;10.39;77.79
74946;HTU21D;63509;45.250;38.102;2023-04-08T00:34:22;10.39;77.79
74946;HTU21D;63509;45.250;38.102;2023-04-08T00:36:48;10.39;77.81
74946;HTU21D;63509;45.250;38.102;2023-04-08T00:39:14;10.40;77.86
74946;HTU21D;63509;45.250;38.102;2023-04-08T00:41:40;10.40;77.86
74946;HTU21D;63509;45.250;38.102;2023-04-08T00:44:06;10.41;77.90
74946;HTU21D;63509;45.250;38.102;2023-04-08T00:46:35;10.40;77.86
74946;HTU21D;63509;45.250;38.102;2023-04-08T00:49:03;10.42;77.86
74946;HTU21D;63509;45.250;38.102;2023-04-08T00:51:30;10.42;77.86
74946;HTU21D;63509;45.250;38.102;2023-04-08T00:53:56;10.41;77.87
74946;HTU21D;63509;45.250;38.102;2023-04-08T00:56:23;10.41;77.90
74946;HTU21D;63509;45.250;38.102;2023-04-08T00:58:50;10.41;77.88
74946;HTU21D;63509;45.250;38.102;2023-04-08T01:04:28;10.41;77.91
74946;HTU21D;63509;45.250;38.102;2023-04-08T01:09:31;10.38;77.93
74946;HTU21D;63509;45.250;38.102;2023-04-08T01:12:01;10.35;78.01
74946;HTU21D;63509;45.250;38.102;2023-04-08T01:14:29;10.36;78.07
74946;HTU21D;63509;45.250;38.102;2023-04-08T01:16:58;10.35;78.11
74946;HTU21D;63509;45.250;38.102;2023-04-08T01:19:29;10.34;78.10
74946;HTU21D;63509;45.250;38.102;2023-04-08T01:25:04;10.33;78.00
74946;HTU21D;63509;45.250;38.102;2023-04-08T01:27:34;10.31;78.11
74946;HTU21D;63509;45.250;38.102;2023-04-08T01:30:02;10.33;78.17
74946;HTU21D;63509;45.250;38.102;2023-04-08T01:32:31;10.34;78.19
74946;HTU21D;63509;45.250;38.102;2023-04-08T01:34:58;10.36;78.20
74946;HTU21D;63509;45.250;38.102;2023-04-08T01:37:28;10.37;78.19
74946;HTU21D;63509;45.250;38.102;2023-04-08T01:39:55;10.38;78.18
74946;HTU21D;63509;45.250;38.102;2023-04-08T01:42:23;10.38;78.21
74946;HTU21D;63509;45.250;38.102;2023-04-08T01:44:51;10.39;78.26
74946;HTU21D;63509;45.250;38.102;2023-04-08T01:47:20;10.40;78.21
74946;HTU21D;63509;45.250;38.102;2023-04-08T01:49:47;10.40;78.24
74946;HTU21D;63509;45.250;38.102;2023-04-08T01:52:13;10.41;78.28
74946;HTU21D;63509;45.250;38.102;2023-04-08T01:54:41;10.40;78.23
74946;HTU21D;63509;45.250;38.102;2023-04-08T01:57:09;10.41;78.27
74946;HTU21D;63509;45.250;38.102;2023-04-08T01:59:37;10.42;78.27
74946;HTU21D;63509;45.250;38.102;2023-04-08T02:02:08;10.40;78.31
74946;HTU21D;63509;45.250;38.102;2023-04-08T02:04:35;10.41;78.29
74946;HTU21D;63509;45.250;38.102;2023-04-08T02:07:01;10.41;78.34
74946;HTU21D;63509;45.250;38.102;2023-04-08T02:09:28;10.42;78.34
74946;HTU21D;63509;45.250;38.102;2023-04-08T02:11:56;10.41;78.37
74946;HTU21D;63509;45.250;38.102;2023-04-08T02:14:22;10.40;78.35
74946;HTU21D;63509;45.250;38.102;2023-04-08T02:16:53;10.40;78.39
74946;HTU21D;63509;45.250;38.102;2023-04-08T02:19:34;10.42;78.30
74946;HTU21D;63509;45.250;38.102;2023-04-08T02:22:11;10.41;78.37
74946;HTU21D;63509;45.250;38.102;2023-04-08T02:24:38;10.41;78.39
74946;HTU21D;63509;45.250;38.102;2023-04-08T02:27:06;10.40;78.47
74946;HTU21D;63509;45.250;38.102;2023-04-08T02:29:34;10.40;78.43
74946;HTU21D;63509;45.250;38.102;2023-04-08T02:32:03;10.41;78.51
74946;HTU21D;63509;45.250;38.102;2023-04-08T02:34:30;10.39;78.53
74946;HTU21D;63509;45.250;38.102;2023-04-08T02:36:57;10.40;78.55
74946;HTU21D;63509;45.250;38.102;2023-04-08T02:39:31;10.40;78.53
74946;HTU21D;63509;45.250;38.102;2023-04-08T02:41:57;10.40;78.52
74946;HTU21D;63509;45.250;38.102;2023-04-08T02:44:24;10.39;78.52
74946;HTU21D;63509;45.250;38.102;2023-04-08T02:46:50;10.40;78.52
74946;HTU21D;63509;45.250;38.102;2023-04-08T02:49:16;10.40;78.54
74946;HTU21D;63509;45.250;38.102;2023-04-08T02:51:42;10.41;78.61
74946;HTU21D;63509;45.250;38.102;2023-04-08T02:54:08;10.41;78.62
74946;HTU21D;63509;45.250;38.102;2023-04-08T02:56:34;10.41;78.65
74946;HTU21D;63509;45.250;38.102;2023-04-08T02:59:01;10.40;78.72
74946;HTU21D;63509;45.250;38.102;2023-04-08T03:01:27;10.41;78.69
74946;HTU21D;63509;45.250;38.102;2023-04-08T03:03:53;10.40;78.72
74946;HTU21D;63509;45.250;38.102;2023-04-08T03:06:19;10.40;78.74
74946;HTU21D;63509;45.250;38.102;2023-04-08T03:08:45;10.41;78.80
74946;HTU21D;63509;45.250;38.102;2023-04-08T03:11:11;10.40;78.74
74946;HTU21D;63509;45.250;38.102;2023-04-08T03:13:37;10.41;78.78
74946;HTU21D;63509;45.250;38.102;2023-04-08T03:16:03;10.40;78.83
74946;HTU21D;63509;45.250;38.102;2023-04-08T03:18:29;10.41;78.86
74946;HTU21D;63509;45.250;38.102;2023-04-08T03:20:55;10.41;78.88
74946;HTU21D;63509;45.250;38.102;2023-04-08T03:23:21;10.41;78.90
74946;HTU21D;63509;45.250;38.102;2023-04-08T03:25:48;10.42;78.88
74946;HTU21D;63509;45.250;38.102;2023-04-08T03:28:14;10.44;78.90
74946;HTU21D;63509;45.250;38.102;2023-04-08T03:30:40;10.44;78.93
74946;HTU21D;63509;45.250;38.102;2023-04-08T03:33:06;10.44;78.96
74946;HTU21D;63509;45.250;38.102;2023-04-08T03:35:33;10.44;78.93
74946;HTU21D;63509;45.250;38.102;2023-04-08T03:37:59;10.44;79.02
74946;HTU21D;63509;45.250;38.102;2023-04-08T03:40:25;10.45;79.04
74946;HTU21D;63509;45.250;38.102;2023-04-08T03:42:51;10.45;79.03
74946;HTU21D;63509;45.250;38.102;2023-04-08T03:45:17;10.48;79.05
74946;HTU21D;63509;45.250;38.102;2023-04-08T03:47:43;10.48;79.07
74946;HTU21D;63509;45.250;38.102;2023-04-08T03:50:09;10.48;79.11
74946;HTU21D;63509;45.250;38.102;2023-04-08T03:52:35;10.49;79.12
74946;HTU21D;63509;45.250;38.102;2023-04-08T03:55:01;10.48;79.13
74946;HTU21D;63509;45.250;38.102;2023-04-08T03:57:27;10.49;79.16
74946;HTU21D;63509;45.250;38.102;2023-04-08T03:59:53;10.50;79.23
74946;HTU21D;63509;45.250;38.102;2023-04-08T04:02:19;10.51;79.28
74946;HTU21D;63509;45.250;38.102;2023-04-08T04:04:45;10.53;79.33
74946;HTU21D;63509;45.250;38.102;2023-04-08T04:07:11;10.55;79.38
74946;HTU21D;63509;45.250;38.102;2023-04-08T04:09:37;10.58;79.42
74946;HTU21D;63509;45.250;38.102;2023-04-08T04:12:03;10.62;79.47
74946;HTU21D;63509;45.250;38.102;2023-04-08T04:14:30;10.66;79.49
74946;HTU21D;63509;45.250;38.102;2023-04-08T04:16:55;10.69;79.47
74946;HTU21D;63509;45.250;38.102;2023-04-08T04:19:22;10.70;79.47
74946;HTU21D;63509;45.250;38.102;2023-04-08T04:21:48;10.75;79.53
74946;HTU21D;63509;45.250;38.102;2023-04-08T04:24:14;10.78;79.56
74946;HTU21D;63509;45.250;38.102;2023-04-08T04:26:40;10.80;79.58
74946;HTU21D;63509;45.250;38.102;2023-04-08T04:29:06;10.82;79.59
74946;HTU21D;63509;45.250;38.102;2023-04-08T04:31:32;10.85;79.64
74946;HTU21D;63509;45.250;38.102;2023-04-08T04:33:58;10.86;79.63
74946;HTU21D;63509;45.250;38.102;2023-04-08T04:36:24;10.90;79.65
74946;HTU21D;63509;45.250;38.102;2023-04-08T04:38:51;10.93;79.68
74946;HTU21D;63509;45.250;38.102;2023-04-08T04:41:17;10.95;79.69
74946;HTU21D;63509;45.250;38.102;2023-04-08T04:43:43;10.96;79.71
74946;HTU21D;63509;45.250;38.102;2023-04-08T04:46:09;10.97;79.69
74946;HTU21D;63509;45.250;38.102;2023-04-08T04:48:35;11.00;79.70
74946;HTU21D;63509;45.250;38.102;2023-04-08T04:51:01;11.02;79.74
74946;HTU21D;63509;45.250;38.102;2023-04-08T04:53:32;11.03;79.75
74946;HTU21D;63509;45.250;38.102;2023-04-08T04:55:58;11.07;79.82
74946;HTU21D;63509;45.250;38.102;2023-04-08T04:58:27;11.08;79.83
74946;HTU21D;63509;45.250;38.102;2023-04-08T05:00:53;11.11;79.85
74946;HTU21D;63509;45.250;38.102;2023-04-08T05:03:19;11.13;79.91
74946;HTU21D;63509;45.250;38.102;2023-04-08T05:05:50;11.17;79.91
74946;HTU21D;63509;45.250;38.102;2023-04-08T05:08:16;11.18;79.92
74946;HTU21D;63509;45.250;38.102;2023-04-08T05:10:42;11.22;79.88
74946;HTU21D;63509;45.250;38.102;2023-04-08T05:13:08;11.24;79.86
74946;HTU21D;63509;45.250;38.102;2023-04-08T05:15:34;11.24;79.84
74946;HTU21D;63509;45.250;38.102;2023-04-08T05:18:01;11.23;79.79
74946;HTU21D;63509;45.250;38.102;2023-04-08T05:20:27;11.23;79.80
74946;HTU21D;63509;45.250;38.102;2023-04-08T05:22:53;11.20;79.82
74946;HTU21D;63509;45.250;38.102;2023-04-08T05:25:19;11.19;79.91
74946;HTU21D;63509;45.250;38.102;2023-04-08T05:27:45;11.18;79.91
74946;HTU21D;63509;45.250;38.102;2023-04-08T05:30:12;11.16;79.94
74946;HTU21D;63509;45.250;38.102;2023-04-08T05:32:38;11.13;80.01
74946;HTU21D;63509;45.250;38.102;2023-04-08T05:35:05;11.13;80.03
74946;HTU21D;63509;45.250;38.102;2023-04-08T05:37:31;11.10;80.15
74946;HTU21D;63509;45.250;38.102;2023-04-08T05:39:57;11.13;80.15
74946;HTU21D;63509;45.250;38.102;2023-04-08T05:42:23;11.11;80.27
74946;HTU21D;63509;45.250;38.102;2023-04-08T05:44:49;11.13;80.28
74946;HTU21D;63509;45.250;38.102;2023-04-08T05:47:15;11.14;80.33
74946;HTU21D;63509;45.250;38.102;2023-04-08T05:49:41;11.15;80.35
74946;HTU21D;63509;45.250;38.102;2023-04-08T05:52:07;11.16;80.35
74946;HTU21D;63509;45.250;38.102;2023-04-08T05:54:34;11.20;80.41
74946;HTU21D;63509;45.250;38.102;2023-04-08T05:57:00;11.22;80.40
74946;HTU21D;63509;45.250;38.102;2023-04-08T05:59:26;11.24;80.46
74946;HTU21D;63509;45.250;38.102;2023-04-08T06:01:52;11.30;80.43
74946;HTU21D;63509;45.250;38.102;2023-04-08T06:04:19;11.31;80.49
74946;HTU21D;63509;45.250;38.102;2023-04-08T06:06:46;11.36;80.44
74946;HTU21D;63509;45.250;38.102;2023-04-08T06:09:11;11.40;80.48
74946;HTU21D;63509;45.250;38.102;2023-04-08T06:11:38;11.45;80.43
74946;HTU21D;63509;45.250;38.102;2023-04-08T06:14:04;11.48;80.49
74946;HTU21D;63509;45.250;38.102;2023-04-08T06:16:30;11.53;80.52
74946;HTU21D;63509;45.250;38.102;2023-04-08T06:18:55;11.57;80.51
74946;HTU21D;63509;45.250;38.102;2023-04-08T06:21:22;11.59;80.52
74946;HTU21D;63509;45.250;38.102;2023-04-08T06:23:48;11.61;80.47
74946;HTU21D;63509;45.250;38.102;2023-04-08T06:26:14;11.66;80.52
74946;HTU21D;63509;45.250;38.102;2023-04-08T06:28:40;11.68;80.52
74946;HTU21D;63509;45.250;38.102;2023-04-08T06:31:06;11.70;80.53
74946;HTU21D;63509;45.250;38.102;2023-04-08T06:33:32;11.73;80.59
74946;HTU21D;63509;45.250;38.102;2023-04-08T06:36:05;11.76;80.62
74946;HTU21D;63509;45.250;38.102;2023-04-08T06:38:32;11.79;80.61
74946;HTU21D;63509;45.250;38.102;2023-04-08T06:41:02;11.83;80.62
74946;HTU21D;63509;45.250;38.102;2023-04-08T06:43:29;11.86;80.59
74946;HTU21D;63509;45.250;38.102;2023-04-08T06:45:56;11.91;80.62
74946;HTU21D;63509;45.250;38.102;2023-04-08T06:48:24;11.94;80.61
74946;HTU21D;63509;45.250;38.102;2023-04-08T06:50:58;11.99;80.72
74946;HTU21D;63509;45.250;38.102;2023-04-08T06:53:26;12.06;80.90
74946;HTU21D;63509;45.250;38.102;2023-04-08T06:55:54;12.12;81.04
74946;HTU21D;63509;45.250;38.102;2023-04-08T06:58:20;12.19;81.13
74946;HTU21D;63509;45.250;38.102;2023-04-08T07:00:46;12.29;81.38
74946;HTU21D;63509;45.250;38.102;2023-04-08T07:03:12;12.41;81.59
74946;HTU21D;63509;45.250;38.102;2023-04-08T07:05:38;12.52;81.72
74946;HTU21D;63509;45.250;38.102;2023-04-08T07:08:05;12.64;81.88
74946;HTU21D;63509;45.250;38.102;2023-04-08T07:10:35;12.76;81.83
74946;HTU21D;63509;45.250;38.102;2023-04-08T07:13:04;12.88;81.83
74946;HTU21D;63509;45.250;38.102;2023-04-08T07:15:31;12.99;81.86
74946;HTU21D;63509;45.250;38.102;2023-04-08T07:17:57;13.08;81.97
74946;HTU21D;63509;45.250;38.102;2023-04-08T07:20:25;13.20;82.06
74946;HTU21D;63509;45.250;38.102;2023-04-08T07:22:51;13.30;81.93
74946;HTU21D;63509;45.250;38.102;2023-04-08T07:25:17;13.39;81.88
74946;HTU21D;63509;45.250;38.102;2023-04-08T07:27:43;13.49;81.87
74946;HTU21D;63509;45.250;38.102;2023-04-08T07:30:10;13.58;81.75
74946;HTU21D;63509;45.250;38.102;2023-04-08T07:32:36;13.68;81.68
74946;HTU21D;63509;45.250;38.102;2023-04-08T07:35:03;13.78;81.73
74946;HTU21D;63509;45.250;38.102;2023-04-08T07:37:29;13.85;81.74
74946;HTU21D;63509;45.250;38.102;2023-04-08T07:39:56;13.94;81.68
74946;HTU21D;63509;45.250;38.102;2023-04-08T07:42:22;14.04;81.69
74946;HTU21D;63509;45.250;38.102;2023-04-08T07:44:48;14.12;81.75
74946;HTU21D;63509;45.250;38.102;2023-04-08T07:47:14;14.21;81.48
74946;HTU21D;63509;45.250;38.102;2023-04-08T07:49:41;14.25;81.23
74946;HTU21D;63509;45.250;38.102;2023-04-08T07:52:07;14.30;81.20
74946;HTU21D;63509;45.250;38.102;2023-04-08T07:54:33;14.38;81.07
74946;HTU21D;63509;45.250;38.102;2023-04-08T07:56:59;14.43;81.03
74946;HTU21D;63509;45.250;38.102;2023-04-08T07:59:27;14.45;80.53
74946;HTU21D;63509;45.250;38.102;2023-04-08T08:01:53;14.49;80.54
74946;HTU21D;63509;45.250;38.102;2023-04-08T08:04:20;14.54;80.52
74946;HTU21D;63509;45.250;38.102;2023-04-08T08:06:46;14.55;80.40
74946;HTU21D;63509;45.250;38.102;2023-04-08T08:09:12;14.59;80.60
74946;HTU21D;63509;45.250;38.102;2023-04-08T08:11:38;14.64;80.35
74946;HTU21D;63509;45.250;38.102;2023-04-08T08:14:04;14.70;80.49
74946;HTU21D;63509;45.250;38.102;2023-04-08T08:16:31;14.78;81.07
74946;HTU21D;63509;45.250;38.102;2023-04-08T08:18:58;14.93;81.06
74946;HTU21D;63509;45.250;38.102;2023-04-08T08:21:24;15.08;81.01
74946;HTU21D;63509;45.250;38.102;2023-04-08T08:23:52;15.22;80.15
74946;HTU21D;63509;45.250;38.102;2023-04-08T08:26:22;15.31;80.66
74946;HTU21D;63509;45.250;38.102;2023-04-08T08:28:53;15.48;80.75
74946;HTU21D;63509;45.250;38.102;2023-04-08T08:31:21;15.65;80.49
74946;HTU21D;63509;45.250;38.102;2023-04-08T08:33:47;15.82;80.37
74946;HTU21D;63509;45.250;38.102;2023-04-08T08:36:15;15.98;80.10
74946;HTU21D;63509;45.250;38.102;2023-04-08T08:38:41;16.11;79.75
74946;HTU21D;63509;45.250;38.102;2023-04-08T08:41:07;16.20;79.17
74946;HTU21D;63509;45.250;38.102;2023-04-08T08:43:33;16.29;79.16
74946;HTU21D;63509;45.250;38.102;2023-04-08T08:46:00;16.39;78.34
74946;HTU21D;63509;45.250;38.102;2023-04-08T08:48:26;16.48;78.13
74946;HTU21D;63509;45.250;38.102;2023-04-08T08:50:53;16.55;78.19
74946;HTU21D;63509;45.250;38.102;2023-04-08T08:53:19;16.60;77.78
74946;HTU21D;63509;45.250;38.102;2023-04-08T08:55:47;16.67;77.91
74946;HTU21D;63509;45.250;38.102;2023-04-08T08:58:14;16.76;77.05
74946;HTU21D;63509;45.250;38.102;2023-04-08T09:00:41;16.81;76.97
74946;HTU21D;63509;45.250;38.102;2023-04-08T09:03:23;16.92;77.15
74946;HTU21D;63509;45.250;38.102;2023-04-08T09:05:58;16.96;76.61
74946;HTU21D;63509;45.250;38.102;2023-04-08T09:08:26;17.00;75.99
74946;HTU21D;63509;45.250;38.102;2023-04-08T09:13:40;17.01;75.81
74946;HTU21D;63509;45.250;38.102;2023-04-08T09:16:10;17.05;75.86
74946;HTU21D;63509;45.250;38.102;2023-04-08T09:18:37;17.06;75.77
74946;HTU21D;63509;45.250;38.102;2023-04-08T09:21:05;17.18;75.81
74946;HTU21D;63509;45.250;38.102;2023-04-08T09:26:13;17.37;75.34
74946;HTU21D;63509;45.250;38.102;2023-04-08T09:28:43;17.47;75.21
74946;HTU21D;63509;45.250;38.102;2023-04-08T09:31:24;17.59;75.27
74946;HTU21D;63509;45.250;38.102;2023-04-08T09:33:59;17.74;75.04
74946;HTU21D;63509;45.250;38.102;2023-04-08T09:36:27;17.90;75.54
74946;HTU21D;63509;45.250;38.102;2023-04-08T09:38:54;18.06;74.70
74946;HTU21D;63509;45.250;38.102;2023-04-08T09:41:21;18.18;74.29
74946;HTU21D;63509;45.250;38.102;2023-04-08T09:43:52;18.34;73.93
74946;HTU21D;63509;45.250;38.102;2023-04-08T09:46:32;18.51;73.80
74946;HTU21D;63509;45.250;38.102;2023-04-08T09:49:07;18.63;73.12
74946;HTU21D;63509;45.250;38.102;2023-04-08T09:51:40;18.71;72.60
74946;HTU21D;63509;45.250;38.102;2023-04-08T09:54:14;18.77;72.25
74946;HTU21D;63509;45.250;38.102;2023-04-08T09:56:50;18.80;72.05
74946;HTU21D;63509;45.250;38.102;2023-04-08T09:59:24;18.81;71.45
74946;HTU21D;63509;45.250;38.102;2023-04-08T10:01:53;18.80;71.31
74946;HTU21D;63509;45.250;38.102;2023-04-08T10:04:22;18.80;71.25
74946;HTU21D;63509;45.250;38.102;2023-04-08T10:06:53;18.78;70.71
74946;HTU21D;63509;45.250;38.102;2023-04-08T10:09:21;18.72;70.68
74946;HTU21D;63509;45.250;38.102;2023-04-08T10:11:48;18.69;70.58
74946;HTU21D;63509;45.250;38.102;2023-04-08T10:14:15;18.67;70.45
74946;HTU21D;63509;45.250;38.102;2023-04-08T10:16:42;18.62;69.98
74946;HTU21D;63509;45.250;38.102;2023-04-08T10:19:39;18.56;70.38
74946;HTU21D;63509;45.250;38.102;2023-04-08T10:27:39;18.47;71.05
74946;HTU21D;63509;45.250;38.102;2023-04-08T10:30:53;18.48;71.54
74946;HTU21D;63509;45.250;38.102;2023-04-08T10:32:54;18.49;70.90
74946;HTU21D;63509;45.250;38.102;2023-04-08T10:35:35;18.49;70.49
74946;HTU21D;63509;45.250;38.102;2023-04-08T10:38:08;18.42;69.87
74946;HTU21D;63509;45.250;38.102;2023-04-08T10:40:38;18.40;69.65
74946;HTU21D;63509;45.250;38.102;2023-04-08T10:43:06;18.37;69.72
74946;HTU21D;63509;45.250;38.102;2023-04-08T10:45:33;18.37;69.02
74946;HTU21D;63509;45.250;38.102;2023-04-08T10:48:12;18.33;69.36
74946;HTU21D;63509;45.250;38.102;2023-04-08T10:50:39;18.30;69.74
74946;HTU21D;63509;45.250;38.102;2023-04-08T10:53:05;18.32;69.15
74946;HTU21D;63509;45.250;38.102;2023-04-08T10:55:32;18.23;68.63
74946;HTU21D;63509;45.250;38.102;2023-04-08T10:58:09;18.12;68.71
74946;HTU21D;63509;45.250;38.102;2023-04-08T11:00:38;17.99;68.54
74946;HTU21D;63509;45.250;38.102;2023-04-08T11:03:09;17.91;69.00
74946;HTU21D;63509;45.250;38.102;2023-04-08T11:05:37;17.85;69.21
74946;HTU21D;63509;45.250;38.102;2023-04-08T11:08:06;17.79;69.49
74946;HTU21D;63509;45.250;38.102;2023-04-08T11:10:37;17.74;69.52
74946;HTU21D;63509;45.250;38.102;2023-04-08T11:13:07;17.66;69.08
74946;HTU21D;63509;45.250;38.102;2023-04-08T11:15:37;17.58;69.58
74946;HTU21D;63509;45.250;38.102;2023-04-08T11:18:04;17.52;69.77
74946;HTU21D;63509;45.250;38.102;2023-04-08T11:20:32;17.51;69.74
74946;HTU21D;63509;45.250;38.102;2023-04-08T11:23:01;17.50;69.76
74946;HTU21D;63509;45.250;38.102;2023-04-08T11:25:28;17.50;69.55
74946;HTU21D;63509;45.250;38.102;2023-04-08T11:27:55;17.48;69.39
74946;HTU21D;63509;45.250;38.102;2023-04-08T11:30:21;17.47;69.44
74946;HTU21D;63509;45.250;38.102;2023-04-08T11:32:49;17.46;69.37
74946;HTU21D;63509;45.250;38.102;2023-04-08T11:35:15;17.47;69.36
74946;HTU21D;63509;45.250;38.102;2023-04-08T11:37:42;17.48;69.36
74946;HTU21D;63509;45.250;38.102;2023-04-08T11:40:11;17.49;69.23
74946;HTU21D;63509;45.250;38.102;2023-04-08T11:42:38;17.47;69.05
74946;HTU21D;63509;45.250;38.102;2023-04-08T11:45:12;17.47;69.09
74946;HTU21D;63509;45.250;38.102;2023-04-08T11:47:39;17.47;68.87
74946;HTU21D;63509;45.250;38.102;2023-04-08T11:50:06;17.44;68.81
74946;HTU21D;63509;45.250;38.102;2023-04-08T11:52:50;17.40;68.93
74946;HTU21D;63509;45.250;38.102;2023-04-08T11:55:26;17.36;68.81
74946;HTU21D;63509;45.250;38.102;2023-04-08T11:57:54;17.32;68.56
74946;HTU21D;63509;45.250;38.102;2023-04-08T12:00:22;17.26;68.50
74946;HTU21D;63509;45.250;38.102;2023-04-08T12:02:49;17.22;68.50
74946;HTU21D;63509;45.250;38.102;2023-04-08T12:05:17;17.17;68.47
74946;HTU21D;63509;45.250;38.102;2023-04-08T12:07:43;17.10;68.46
74946;HTU21D;63509;45.250;38.102;2023-04-08T12:10:10;17.02;68.51
74946;HTU21D;63509;45.250;38.102;2023-04-08T12:12:37;16.93;68.51
74946;HTU21D;63509;45.250;38.102;2023-04-08T12:15:04;16.86;68.54
74946;HTU21D;63509;45.250;38.102;2023-04-08T12:17:30;16.77;68.65
74946;HTU21D;63509;45.250;38.102;2023-04-08T12:19:56;16.71;68.91
74946;HTU21D;63509;45.250;38.102;2023-04-08T12:22:22;16.62;69.12
74946;HTU21D;63509;45.250;38.102;2023-04-08T12:24:48;16.56;69.36
74946;HTU21D;63509;45.250;38.102;2023-04-08T12:27:15;16.47;69.58
74946;HTU21D;63509;45.250;38.102;2023-04-08T12:29:41;16.41;69.73
74946;HTU21D;63509;45.250;38.102;2023-04-08T12:32:08;16.33;69.97
74946;HTU21D;63509;45.250;38.102;2023-04-08T12:34:34;16.31;70.29
74946;HTU21D;63509;45.250;38.102;2023-04-08T12:37:00;16.26;70.57
74946;HTU21D;63509;45.250;38.102;2023-04-08T12:39:27;16.22;70.55
74946;HTU21D;63509;45.250;38.102;2023-04-08T12:41:53;16.22;70.66
74946;HTU21D;63509;45.250;38.102;2023-04-08T12:44:19;16.20;70.72
74946;HTU21D;63509;45.250;38.102;2023-04-08T12:46:45;16.18;70.83
74946;HTU21D;63509;45.250;38.102;2023-04-08T12:49:11;16.18;70.90
74946;HTU21D;63509;45.250;38.102;2023-04-08T12:51:37;16.16;70.99
74946;HTU21D;63509;45.250;38.102;2023-04-08T12:54:04;16.16;70.94
74946;HTU21D;63509;45.250;38.102;2023-04-08T12:56:31;16.14;70.88
74946;HTU21D;63509;45.250;38.102;2023-04-08T12:59:00;16.11;70.89
74946;HTU21D;63509;45.250;38.102;2023-04-08T13:01:26;16.10;70.93
74946;HTU21D;63509;45.250;38.102;2023-04-08T13:03:52;16.07;71.00
74946;HTU21D;63509;45.250;38.102;2023-04-08T13:06:19;16.08;71.01
74946;HTU21D;63509;45.250;38.102;2023-04-08T13:08:45;16.07;71.09
74946;HTU21D;63509;45.250;38.102;2023-04-08T13:11:12;16.06;71.06
74946;HTU21D;63509;45.250;38.102;2023-04-08T13:13:38;16.06;71.10
74946;HTU21D;63509;45.250;38.102;2023-04-08T13:16:04;16.07;71.03
74946;HTU21D;63509;45.250;38.102;2023-04-08T13:18:30;16.06;70.89
74946;HTU21D;63509;45.250;38.102;2023-04-08T13:20:56;16.04;70.78
74946;HTU21D;63509;45.250;38.102;2023-04-08T13:23:23;16.02;70.88
74946;HTU21D;63509;45.250;38.102;2023-04-08T13:25:49;16.01;70.80
74946;HTU21D;63509;45.250;38.102;2023-04-08T13:28:16;16.00;70.79
74946;HTU21D;63509;45.250;38.102;2023-04-08T13:30:43;16.01;70.81
74946;HTU21D;63509;45.250;38.102;2023-04-08T13:33:09;16.00;70.71
74946;HTU21D;63509;45.250;38.102;2023-04-08T13:35:35;15.97;70.48
74946;HTU21D;63509;45.250;38.102;2023-04-08T13:38:01;15.95;70.24
74946;HTU21D;63509;45.250;38.102;2023-04-08T13:40:27;15.90;70.19
74946;HTU21D;63509;45.250;38.102;2023-04-08T13:42:53;15.88;70.19
74946;HTU21D;63509;45.250;38.102;2023-04-08T13:45:19;15.83;70.03
74946;HTU21D;63509;45.250;38.102;2023-04-08T13:47:46;15.81;69.97
74946;HTU21D;63509;45.250;38.102;2023-04-08T13:50:12;15.78;69.97
74946;HTU21D;63509;45.250;38.102;2023-04-08T13:52:38;15.73;69.90
74946;HTU21D;63509;45.250;38.102;2023-04-08T13:55:04;15.71;69.98
74946;HTU21D;63509;45.250;38.102;2023-04-08T13:57:30;15.68;69.99
74946;HTU21D;63509;45.250;38.102;2023-04-08T13:59:57;15.63;69.95
74946;HTU21D;63509;45.250;38.102;2023-04-08T14:02:22;15.59;70.05
74946;HTU21D;63509;45.250;38.102;2023-04-08T14:04:49;15.57;70.00
74946;HTU21D;63509;45.250;38.102;2023-04-08T14:07:15;15.52;70.01
74946;HTU21D;63509;45.250;38.102;2023-04-08T14:09:41;15.47;69.95
74946;HTU21D;63509;45.250;38.102;2023-04-08T14:12:07;15.43;69.92
74946;HTU21D;63509;45.250;38.102;2023-04-08T14:14:33;15.39;69.95
74946;HTU21D;63509;45.250;38.102;2023-04-08T14:16:59;15.36;69.81
74946;HTU21D;63509;45.250;38.102;2023-04-08T14:19:25;15.31;70.05
74946;HTU21D;63509;45.250;38.102;2023-04-08T14:21:51;15.28;69.87
74946;HTU21D;63509;45.250;38.102;2023-04-08T14:24:17;15.25;69.94
74946;HTU21D;63509;45.250;38.102;2023-04-08T14:26:43;15.21;69.93
74946;HTU21D;63509;45.250;38.102;2023-04-08T14:29:10;15.19;69.87
74946;HTU21D;63509;45.250;38.102;2023-04-08T14:31:36;15.16;69.83
74946;HTU21D;63509;45.250;38.102;2023-04-08T14:34:02;15.12;69.79
74946;HTU21D;63509;45.250;38.102;2023-04-08T14:36:29;15.09;69.78
74946;HTU21D;63509;45.250;38.102;2023-04-08T14:38:57;15.04;69.78
74946;HTU21D;63509;45.250;38.102;2023-04-08T14:41:23;15.01;69.83
74946;HTU21D;63509;45.250;38.102;2023-04-08T14:43:52;14.98;69.78
74946;HTU21D;63509;45.250;38.102;2023-04-08T14:46:19;14.93;69.71
74946;HTU21D;63509;45.250;38.102;2023-04-08T14:48:46;14.89;69.70
74946;HTU21D;63509;45.250;38.102;2023-04-08T14:51:12;14.85;69.67
74946;HTU21D;63509;45.250;38.102;2023-04-08T14:53:38;14.82;69.66
74946;HTU21D;63509;45.250;38.102;2023-04-08T14:56:06;14.73;69.76
74946;HTU21D;63509;45.250;38.102;2023-04-08T14:58:33;14.71;69.81
74946;HTU21D;63509;45.250;38.102;2023-04-08T15:01:00;14.66;69.84
74946;HTU21D;63509;45.250;38.102;2023-04-08T15:03:26;14.64;69.81
74946;HTU21D;63509;45.250;38.102;2023-04-08T15:05:56;14.58;69.87
74946;HTU21D;63509;45.250;38.102;2023-04-08T15:08:23;14.54;69.93
74946;HTU21D;63509;45.250;38.102;2023-04-08T15:10:50;14.50;70.01
74946;HTU21D;63509;45.250;38.102;2023-04-08T15:13:16;14.44;70.14
74946;HTU21D;63509;45.250;38.102;2023-04-08T15:15:42;14.41;70.23
74946;HTU21D;63509;45.250;38.102;2023-04-08T15:18:11;14.39;70.20
74946;HTU21D;63509;45.250;38.102;2023-04-08T15:20:38;14.34;70.26
74946;HTU21D;63509;45.250;38.102;2023-04-08T15:23:04;14.30;70.26